This is the latest recevied weather packets stored in our database for station/object BMCB-34. If no packets are shown the sender has not sent any weather packets the latest 10 day(s).
| Time | Temp. | Humidity | Pressure | Rain* | Wind** | Luminosity | Snow |
|---|---|---|---|---|---|---|---|
| 1777596625 | 7.78° C | 52% | 1019.9 hPa | 0 mm | - | 0 W/m² | - |
| 1777594834 | 8.33° C | 50% | 1020 hPa | 0 mm | - | 0 W/m² | - |
| 1777593635 | 8.33° C | 53% | 1019.9 hPa | 0 mm | - | 0 W/m² | - |
| 1777591836 | 8.33° C | 53% | 1019.9 hPa | 0 mm | - | 0 W/m² | - |
| 1777591223 | 9.44° C | 46% | 1019.8 hPa | 0 mm | - | 0 W/m² | - |
| 1777589436 | 10.56° C | 41% | 1019.5 hPa | 0 mm | - | 0 W/m² | - |
| 1777587645 | 11.11° C | 40% | 1019.6 hPa | 0 mm | - | 0 W/m² | - |
| 1777587041 | 10.56° C | 42% | 1019.7 hPa | 0 mm | - | 0 W/m² | - |
| 1777585838 | 11.11° C | 40% | 1019.5 hPa | 0 mm | - | 0 W/m² | - |
| 1777585234 | 11.11° C | 41% | 1019.6 hPa | 0 mm | - | 0 W/m² | - |
| 1777584637 | 11.11° C | 40% | 1019.5 hPa | 0 mm | - | 0 W/m² | - |
| 1777582233 | 11.11° C | 43% | 1019.5 hPa | 0 mm | - | 0 W/m² | - |
| 1777579247 | 11.67° C | 40% | 1019.2 hPa | 0 mm | - | 0 W/m² | - |
| 1777578051 | 11.67° C | 40% | 1019 hPa | 0 mm | - | 0 W/m² | - |
| 1777577443 | 12.22° C | 39% | 1018.8 hPa | 0 mm | - | 0 W/m² | - |
| 1777575039 | 15° C | 32% | 1018.3 hPa | 0 mm | - | 6 W/m² | - |
| 1777570242 | 17.78° C | 25% | 1017.6 hPa | 0 mm | - | 212 W/m² | - |
| 1777569039 | 17.78° C | 24% | 1017.5 hPa | 0 mm | - | 264 W/m² | - |
| 1777567839 | 18.33° C | 23% | 1017.5 hPa | 0 mm | - | 290 W/m² | - |
| 1777567832 | 18.33° C | 23% | 1017.5 hPa | 0 mm | - | 316 W/m² | - |
| 1777567232 | 18.89° C | 23% | 1017.5 hPa | 0 mm | - | 342 W/m² | - |
| 1777563623 | 18.89° C | 24% | 1017.4 hPa | 0 mm | - | 468 W/m² | - |
| 1777563022 | 18.89° C | 24% | 1017.5 hPa | 0 mm | - | 510 W/m² | - |
| 1777562423 | 18.89° C | 24% | 1017.5 hPa | 0 mm | - | 510 W/m² | - |
| 1777561816 | 18.89° C | 26% | 1017.6 hPa | 0 mm | - | 552 W/m² | - |
* Rain latest hour (hover to see other rain measurements)
** Current wind speed in m/s (hover to see current wind gust speed)